Time;durP1;ratioP1;P1;durP2;ratioP2;P2;SDS_P1;SDS_P2;PMS_P1;PMS_P2;Temp;Humidity;BMP_temperature;BMP_pressure;BME280_temperature;BME280_humidity;BME280_pressure;Samples;Min_cycle;Max_cycle;Signal;HPM_P1;HPM_P2
2021/05/25 00:00:26;;;;;;;2.30;1.30;;;14.30;99.90;;;;;;5055049;28;20202;-68
2021/05/25 00:02:54;;;;;;;2.90;1.40;;;14.30;99.90;;;;;;5055444;28;20279;-67
2021/05/25 00:05:25;;;;;;;2.33;1.53;;;14.30;99.90;;;;;;5054821;28;20259;-67
2021/05/25 00:07:54;;;;;;;1.93;1.43;;;14.40;99.90;;;;;;5055014;28;20193;-68
2021/05/25 00:10:22;;;;;;;1.95;1.50;;;14.30;99.90;;;;;;5054743;28;20296;-66
2021/05/25 00:12:51;;;;;;;3.20;2.33;;;14.30;99.90;;;;;;5054940;28;20265;-67
2021/05/25 00:15:21;;;;;;;1.57;1.37;;;14.20;99.90;;;;;;5054750;28;20304;-68
2021/05/25 00:17:49;;;;;;;2.77;2.00;;;14.40;99.90;;;;;;5054779;28;20208;-67
2021/05/25 00:20:19;;;;;;;1.98;1.58;;;14.40;99.90;;;;;;5054796;28;20197;-67
2021/05/25 00:22:47;;;;;;;4.50;1.50;;;14.40;99.90;;;;;;5054294;28;20715;-69
2021/05/25 00:25:17;;;;;;;2.30;1.60;;;14.30;99.90;;;;;;5054447;28;20201;-68
2021/05/25 00:27:45;;;;;;;1.43;1.33;;;14.50;99.90;;;;;;5054327;28;20709;-68
2021/05/25 00:30:17;;;;;;;1.93;1.60;;;14.40;99.90;;;;;;5054487;28;20197;-68
2021/05/25 00:32:45;;;;;;;1.57;1.40;;;14.50;99.90;;;;;;5054153;28;20272;-68
2021/05/25 00:35:14;;;;;;;1.87;1.20;;;14.40;99.90;;;;;;5053882;28;20289;-67
2021/05/25 00:37:41;;;;;;;1.93;1.43;;;14.30;99.90;;;;;;5054189;28;20304;-68
2021/05/25 00:40:11;;;;;;;2.23;1.20;;;14.20;99.90;;;;;;5054404;28;20296;-67
2021/05/25 00:42:38;;;;;;;1.67;1.50;;;14.10;99.90;;;;;;5054215;28;20292;-68
2021/05/25 00:45:08;;;;;;;2.37;1.37;;;14.10;99.90;;;;;;5053884;28;20736;-67
2021/05/25 00:47:37;;;;;;;3.10;1.60;;;14.40;99.90;;;;;;5054106;28;20211;-67
2021/05/25 00:50:12;;;;;;;3.90;2.10;;;14.30;99.90;;;;;;5054060;28;20206;-67
2021/05/25 00:52:42;;;;;;;1.83;1.70;;;14.30;99.90;;;;;;5053955;28;20189;-68
2021/05/25 00:55:13;;;;;;;3.63;1.77;;;14.40;99.90;;;;;;5053848;28;20244;-68
2021/05/25 00:57:42;;;;;;;2.83;1.60;;;14.30;99.90;;;;;;5054011;28;20206;-67
2021/05/25 01:00:11;;;;;;;2.80;1.77;;;14.20;99.90;;;;;;5053873;28;20305;-68
2021/05/25 01:02:40;;;;;;;3.40;1.50;;;14.30;99.90;;;;;;5053595;28;20669;-66
2021/05/25 01:05:11;;;;;;;2.33;1.60;;;14.30;99.90;;;;;;5053733;28;20255;-67
2021/05/25 01:07:39;;;;;;;3.30;1.50;;;14.20;99.90;;;;;;5053788;28;20269;-68
2021/05/25 01:10:08;;;;;;;2.93;1.60;;;14.20;99.90;;;;;;5053985;28;20197;-68
2021/05/25 01:12:39;;;;;;;2.07;1.53;;;14.10;99.90;;;;;;5053769;28;20201;-67
2021/05/25 01:15:10;;;;;;;2.00;1.20;;;14.00;99.90;;;;;;5053403;28;20276;-68
2021/05/25 01:17:39;;;;;;;3.00;1.30;;;14.00;99.90;;;;;;5053617;28;20201;-67
2021/05/25 01:20:08;;;;;;;2.43;1.43;;;14.20;99.90;;;;;;5053680;28;20292;-68
2021/05/25 01:22:36;;;;;;;2.67;1.60;;;14.30;99.90;;;;;;5052872;28;20670;-69
2021/05/25 01:25:10;;;;;;;4.27;3.10;;;14.10;99.90;;;;;;5053220;28;20209;-68
2021/05/25 01:27:37;;;;;;;1.97;1.50;;;14.00;99.90;;;;;;5053362;28;20213;-67
2021/05/25 01:30:07;;;;;;;2.45;1.40;;;14.00;99.90;;;;;;5053061;28;20319;-68
2021/05/25 01:32:34;;;;;;;3.23;1.50;;;13.90;99.90;;;;;;5053099;28;20248;-68
2021/05/25 01:35:03;;;;;;;2.13;1.70;;;13.80;99.90;;;;;;5053433;28;20236;-68
2021/05/25 01:37:31;;;;;;;1.80;1.53;;;13.70;99.90;;;;;;5052996;28;20300;-68
2021/05/25 01:39:59;;;;;;;2.17;1.33;;;13.60;99.90;;;;;;5053139;28;20197;-68
2021/05/25 01:42:32;;;;;;;1.80;1.30;;;13.50;99.90;;;;;;5053180;28;20197;-67
2021/05/25 01:45:00;;;;;;;3.10;1.50;;;13.60;99.90;;;;;;5046503;28;20195;-67
2021/05/25 01:47:27;;;;;;;1.43;1.27;;;13.70;99.90;;;;;;5051828;28;20558;-67
2021/05/25 01:50:10;;;;;;;2.40;1.50;;;13.70;99.90;;;;;;5053211;28;20288;-67
2021/05/25 01:52:39;;;;;;;2.40;1.60;;;13.60;99.90;;;;;;5033127;28;20281;-67
2021/05/25 01:55:08;;;;;;;1.50;1.40;;;13.60;99.90;;;;;;5032871;28;20213;-69
2021/05/25 01:57:36;;;;;;;1.50;1.40;;;13.60;99.90;;;;;;5033538;28;20234;-68
2021/05/25 02:00:06;;;;;;;2.27;1.60;;;13.60;99.90;;;;;;5033015;28;20202;-68
2021/05/25 02:02:33;;;;;;;2.93;1.33;;;13.50;99.90;;;;;;5032756;28;20245;-68
2021/05/25 02:05:01;;;;;;;2.70;1.23;;;13.40;99.90;;;;;;5033103;28;20202;-68
2021/05/25 02:07:29;;;;;;;1.63;1.37;;;13.50;99.90;;;;;;5032904;28;20252;-67
2021/05/25 02:09:56;;;;;;;2.57;1.43;;;13.50;99.90;;;;;;5032936;28;20245;-69
2021/05/25 02:12:24;;;;;;;4.03;1.90;;;13.60;99.90;;;;;;5033225;28;20202;-67
2021/05/25 02:14:52;;;;;;;1.40;1.23;;;13.80;99.90;;;;;;5032732;28;20237;-60
2021/05/25 02:17:19;;;;;;;1.50;1.30;;;13.80;99.90;;;;;;5032673;28;20310;-60
2021/05/25 02:19:47;;;;;;;3.23;1.50;;;13.70;99.90;;;;;;5032516;28;20203;-59
2021/05/25 02:22:14;;;;;;;1.80;1.50;;;13.80;99.90;;;;;;5032494;28;20293;-60
2021/05/25 02:24:41;;;;;;;2.00;1.47;;;13.70;99.90;;;;;;5032424;28;20293;-59
2021/05/25 02:27:09;;;;;;;2.27;1.40;;;13.70;99.90;;;;;;5032618;28;20301;-59
2021/05/25 02:29:37;;;;;;;1.80;1.20;;;13.70;99.90;;;;;;5032064;28;20197;-60
2021/05/25 02:32:04;;;;;;;2.50;1.37;;;13.60;99.90;;;;;;5032413;28;20229;-60
2021/05/25 02:34:32;;;;;;;1.40;1.30;;;13.70;99.90;;;;;;5032222;28;20210;-59
2021/05/25 02:36:59;;;;;;;1.67;1.27;;;13.50;99.90;;;;;;5032326;28;20218;-59
2021/05/25 02:39:26;;;;;;;2.40;1.37;;;13.40;99.90;;;;;;5032334;28;20226;-60
2021/05/25 02:41:54;;;;;;;1.70;1.30;;;13.50;99.90;;;;;;5032455;28;20224;-59
2021/05/25 02:44:21;;;;;;;2.07;1.40;;;13.50;99.90;;;;;;5032318;28;20202;-60
2021/05/25 02:46:49;;;;;;;1.50;1.40;;;13.50;99.90;;;;;;5032447;28;20285;-59
2021/05/25 02:49:17;;;;;;;2.27;1.27;;;13.40;99.90;;;;;;5032448;28;20197;-60
2021/05/25 02:51:44;;;;;;;1.50;1.30;;;13.40;99.90;;;;;;5046506;28;20327;-60
2021/05/25 02:54:11;;;;;;;3.20;1.23;;;13.40;99.90;;;;;;5052271;28;20237;-60
2021/05/25 02:56:44;;;;;;;3.43;1.47;;;13.40;99.90;;;;;;5052341;28;20205;-59
2021/05/25 02:59:12;;;;;;;1.20;1.10;;;13.50;99.90;;;;;;5054292;28;20296;-59
2021/05/25 03:01:39;;;;;;;2.17;1.47;;;13.30;99.90;;;;;;5056009;28;20205;-60
2021/05/25 03:04:07;;;;;;;1.67;1.40;;;13.20;99.90;;;;;;5056189;28;20547;-59
2021/05/25 03:06:34;;;;;;;1.53;1.40;;;13.10;99.90;;;;;;5056020;28;20548;-59
2021/05/25 03:09:03;;;;;;;2.47;1.50;;;13.20;99.90;;;;;;5055449;28;20296;-58
2021/05/25 03:11:31;;;;;;;2.27;1.20;;;13.20;99.90;;;;;;5056011;28;20263;-59
2021/05/25 03:13:58;;;;;;;2.47;1.03;;;13.20;99.90;;;;;;5056035;28;20201;-59
2021/05/25 03:16:25;;;;;;;1.10;0.83;;;13.20;99.90;;;;;;5055697;28;20213;-59
2021/05/25 03:18:53;;;;;;;1.20;1.10;;;13.20;99.90;;;;;;5056071;28;20588;-59
2021/05/25 03:21:21;;;;;;;1.10;1.00;;;13.30;99.90;;;;;;5055304;28;20614;-59
2021/05/25 03:23:48;;;;;;;1.20;0.90;;;13.30;99.90;;;;;;5055833;28;20202;-60
2021/05/25 03:26:16;;;;;;;2.10;0.83;;;13.30;99.90;;;;;;5055734;28;20207;-59
2021/05/25 03:28:43;;;;;;;2.10;1.23;;;13.30;99.90;;;;;;5055691;28;20197;-60
2021/05/25 03:31:11;;;;;;;1.60;0.90;;;13.20;99.90;;;;;;5055447;28;20233;-59
2021/05/25 03:33:38;;;;;;;1.00;0.80;;;13.20;99.90;;;;;;5055698;28;20255;-59
2021/05/25 03:36:06;;;;;;;1.17;0.73;;;13.20;99.90;;;;;;5055472;28;20233;-60
2021/05/25 03:38:34;;;;;;;0.80;0.70;;;13.20;99.90;;;;;;5055492;28;20312;-60
2021/05/25 03:41:01;;;;;;;2.10;0.70;;;13.20;99.90;;;;;;5055346;28;20244;-60
2021/05/25 03:43:28;;;;;;;1.20;0.83;;;13.20;99.90;;;;;;5055379;28;20260;-60
2021/05/25 03:45:56;;;;;;;1.80;0.87;;;13.20;99.90;;;;;;5048813;28;20292;-60
2021/05/25 03:48:23;;;;;;;2.27;0.80;;;13.20;99.90;;;;;;5055388;28;20220;-60
2021/05/25 03:50:50;;;;;;;0.60;0.60;;;13.20;99.90;;;;;;5055023;28;20233;-60
2021/05/25 03:53:18;;;;;;;2.20;0.90;;;13.20;99.90;;;;;;5055216;28;20236;-59
2021/05/25 03:55:51;;;;;;;1.00;0.80;;;13.10;99.90;;;;;;5055189;28;20202;-61
2021/05/25 04:01:05;;;;;;;1.50;0.90;;;13.00;99.90;;;;;;5055045;28;20189;-60
2021/05/25 04:03:34;;;;;;;0.73;0.73;;;13.00;99.90;;;;;;5055091;28;20225;-59
2021/05/25 04:06:01;;;;;;;2.23;1.20;;;13.10;99.90;;;;;;5054847;28;20301;-59
2021/05/25 04:08:29;;;;;;;1.70;0.90;;;13.10;99.90;;;;;;5054816;28;20221;-59
2021/05/25 04:10:58;;;;;;;1.03;0.60;;;13.00;99.90;;;;;;5053587;28;20256;-60
2021/05/25 04:13:25;;;;;;;0.70;0.53;;;13.10;99.90;;;;;;5054475;28;20292;-59
2021/05/25 04:15:54;;;;;;;2.20;0.77;;;13.10;99.90;;;;;;5054273;28;20237;-59
2021/05/25 04:18:23;;;;;;;0.80;0.70;;;13.10;99.90;;;;;;5054293;28;20588;-62
2021/05/25 04:20:50;;;;;;;1.73;0.80;;;13.20;99.90;;;;;;5054647;28;20237;-60
2021/05/25 04:23:18;;;;;;;0.63;0.63;;;13.10;99.90;;;;;;5054142;28;20330;-59
2021/05/25 04:25:46;;;;;;;1.23;0.60;;;13.10;99.90;;;;;;5051674;28;20198;-60
2021/05/25 04:28:14;;;;;;;1.00;0.70;;;13.10;99.90;;;;;;5054405;28;20240;-60
2021/05/25 04:30:42;;;;;;;2.97;0.90;;;13.10;99.90;;;;;;5054366;28;20316;-59
2021/05/25 04:33:10;;;;;;;1.13;1.03;;;13.10;99.90;;;;;;5054517;28;20201;-60
2021/05/25 04:35:38;;;;;;;1.70;0.80;;;13.10;99.90;;;;;;5054506;28;20288;-61
2021/05/25 04:38:06;;;;;;;0.90;0.70;;;13.10;99.90;;;;;;5054274;28;20631;-61
2021/05/25 04:40:34;;;;;;;1.17;1.03;;;13.00;99.90;;;;;;5054249;28;20216;-60
2021/05/25 04:43:03;;;;;;;1.40;0.80;;;13.00;99.90;;;;;;5054167;28;20202;-60
2021/05/25 04:45:31;;;;;;;1.10;1.00;;;13.00;99.90;;;;;;5054045;28;20205;-58
2021/05/25 04:47:58;;;;;;;1.80;0.80;;;13.00;99.90;;;;;;5054134;28;20288;-60
2021/05/25 04:50:26;;;;;;;1.07;0.77;;;13.00;99.90;;;;;;5053904;28;20233;-59
2021/05/25 04:52:53;;;;;;;1.13;0.80;;;13.00;99.90;;;;;;5053791;28;20188;-59
2021/05/25 04:55:22;;;;;;;2.10;0.80;;;13.00;99.90;;;;;;5054037;28;20206;-59
2021/05/25 04:57:50;;;;;;;0.93;0.70;;;13.00;99.90;;;;;;5053957;28;20213;-60
2021/05/25 05:00:19;;;;;;;1.83;0.77;;;13.00;99.90;;;;;;5053501;28;20304;-60
2021/05/25 05:02:48;;;;;;;1.13;0.80;;;13.10;99.90;;;;;;5053548;28;20201;-59
2021/05/25 05:05:15;;;;;;;1.43;0.80;;;13.10;99.90;;;;;;5053417;28;20657;-60
2021/05/25 05:07:43;;;;;;;1.37;0.70;;;13.00;99.90;;;;;;5053679;28;20297;-59
2021/05/25 05:10:12;;;;;;;1.53;0.83;;;13.00;99.90;;;;;;5053851;28;20344;-59
2021/05/25 05:12:40;;;;;;;1.60;0.70;;;13.00;99.90;;;;;;5053754;28;20259;-60
2021/05/25 05:15:08;;;;;;;1.33;0.77;;;13.10;99.90;;;;;;5053036;28;20592;-60
2021/05/25 05:17:36;;;;;;;1.10;0.80;;;13.10;99.90;;;;;;5053222;28;20231;-59
2021/05/25 05:20:06;;;;;;;1.00;0.60;;;13.10;99.90;;;;;;5053390;28;20201;-60
2021/05/25 05:22:34;;;;;;;1.83;0.63;;;13.10;99.90;;;;;;5052878;28;20622;-59
2021/05/25 05:25:03;;;;;;;1.47;0.60;;;13.00;99.90;;;;;;5053520;28;20284;-60
2021/05/25 05:27:30;;;;;;;1.93;0.80;;;13.00;99.90;;;;;;5053395;28;20209;-59
2021/05/25 05:29:58;;;;;;;1.53;0.80;;;12.90;99.90;;;;;;5052689;28;20215;-60
2021/05/25 05:32:25;;;;;;;2.60;0.70;;;12.80;99.90;;;;;;5052809;28;20677;-60
2021/05/25 05:34:52;;;;;;;0.73;0.50;;;12.70;99.90;;;;;;5053152;28;20237;-60
2021/05/25 05:37:21;;;;;;;1.30;0.63;;;12.80;99.90;;;;;;5052774;28;20260;-60
2021/05/25 05:39:48;;;;;;;1.87;0.50;;;12.70;99.90;;;;;;5052904;28;20284;-59
2021/05/25 05:42:15;;;;;;;1.70;1.17;;;12.80;99.90;;;;;;5052801;28;20237;-60
2021/05/25 05:44:44;;;;;;;1.37;0.70;;;12.80;99.90;;;;;;5052588;28;20205;-59
2021/05/25 05:47:12;;;;;;;1.73;0.60;;;12.90;99.90;;;;;;5052973;28;20211;-59
2021/05/25 05:49:39;;;;;;;1.13;0.60;;;13.00;99.90;;;;;;5052745;28;20205;-60
2021/05/25 05:52:07;;;;;;;0.50;0.40;;;13.10;99.90;;;;;;5047640;28;20252;-60
2021/05/25 05:54:35;;;;;;;6.77;3.70;;;13.10;99.90;;;;;;5052020;28;20198;-59
2021/05/25 05:57:02;;;;;;;4.10;1.10;;;12.90;99.90;;;;;;5052100;28;20210;-60
2021/05/25 05:59:30;;;;;;;18.67;2.77;;;12.90;99.90;;;;;;5043964;28;20218;-61
2021/05/25 06:01:57;;;;;;;4.00;1.00;;;13.00;99.90;;;;;;5052670;28;20205;-59
2021/05/25 06:04:25;;;;;;;1.50;0.70;;;13.00;99.90;;;;;;5052470;28;20205;-59
2021/05/25 06:06:52;;;;;;;0.60;0.60;;;13.10;99.90;;;;;;5052564;28;20630;-60
2021/05/25 06:09:19;;;;;;;1.43;0.70;;;13.10;99.90;;;;;;5052491;28;20259;-60
2021/05/25 06:11:53;;;;;;;2.07;0.60;;;13.20;99.90;;;;;;5049755;28;20220;-60
2021/05/25 06:14:24;;;;;;;1.73;0.70;;;13.20;99.90;;;;;;5044069;28;20640;-59
2021/05/25 06:16:51;;;;;;;3.43;0.70;;;13.10;99.90;;;;;;5052214;28;20277;-60
2021/05/25 06:19:19;;;;;;;1.37;0.70;;;13.10;99.90;;;;;;5052179;28;20221;-59
2021/05/25 06:21:46;;;;;;;2.63;0.60;;;13.10;99.90;;;;;;5051737;28;20240;-60
2021/05/25 06:24:13;;;;;;;0.97;0.80;;;13.20;99.90;;;;;;5051626;28;20225;-61
2021/05/25 06:26:41;;;;;;;0.97;0.80;;;13.20;99.90;;;;;;5052126;28;20209;-60
2021/05/25 06:29:09;;;;;;;1.13;0.70;;;13.10;99.90;;;;;;5051995;28;20756;-59
2021/05/25 06:31:37;;;;;;;0.80;0.50;;;13.10;99.90;;;;;;5052340;28;20205;-59
2021/05/25 06:34:04;;;;;;;2.10;0.70;;;13.30;99.90;;;;;;5054133;28;20201;-60
2021/05/25 06:36:32;;;;;;;1.97;0.70;;;13.50;99.90;;;;;;5056486;28;20291;-59
2021/05/25 06:39:04;;;;;;;3.63;0.93;;;13.80;99.90;;;;;;5056151;28;20209;-69
2021/05/25 06:41:32;;;;;;;1.63;0.77;;;14.00;99.90;;;;;;5051204;28;20228;-72
2021/05/25 06:43:59;;;;;;;1.20;0.80;;;14.00;99.90;;;;;;5055955;28;20205;-62
2021/05/25 06:46:27;;;;;;;3.60;0.73;;;14.10;99.90;;;;;;5055745;28;20201;-62
2021/05/25 06:48:55;;;;;;;1.70;0.60;;;14.30;99.90;;;;;;5055915;28;20201;-65
2021/05/25 06:51:22;;;;;;;2.07;0.70;;;14.30;99.90;;;;;;5055499;28;20328;-66
2021/05/25 06:53:49;;;;;;;1.77;0.60;;;14.40;99.90;;;;;;5055755;28;20664;-65
2021/05/25 06:56:17;;;;;;;1.57;0.60;;;14.50;99.90;;;;;;5055658;28;20201;-64
2021/05/25 06:58:44;;;;;;;1.07;0.67;;;14.60;99.90;;;;;;5055634;28;20221;-64
2021/05/25 07:01:11;;;;;;;1.50;0.70;;;14.60;99.90;;;;;;5055718;28;20205;-65
2021/05/25 07:03:40;;;;;;;2.00;0.60;;;14.60;99.90;;;;;;5055675;28;20292;-66
2021/05/25 07:06:07;;;;;;;0.57;0.57;;;14.70;99.90;;;;;;5055276;28;20292;-63
2021/05/25 07:08:35;;;;;;;0.90;0.70;;;14.70;99.90;;;;;;5055466;28;20208;-65
2021/05/25 07:11:02;;;;;;;1.73;0.70;;;14.80;99.90;;;;;;5055662;28;20229;-65
2021/05/25 07:13:30;;;;;;;1.70;0.50;;;15.00;99.90;;;;;;5055245;28;20688;-65
2021/05/25 07:15:57;;;;;;;1.30;0.70;;;15.20;99.90;;;;;;5055507;28;20205;-65
2021/05/25 07:18:24;;;;;;;1.47;0.60;;;15.10;99.90;;;;;;5054990;28;20317;-65
2021/05/25 07:20:52;;;;;;;2.20;0.57;;;15.10;99.90;;;;;;5055170;28;20244;-69
2021/05/25 07:23:20;;;;;;;3.33;1.00;;;15.10;99.90;;;;;;5054629;28;20787;-66
2021/05/25 07:25:47;;;;;;;1.23;0.50;;;15.40;99.90;;;;;;5055258;28;20214;-66
2021/05/25 07:28:15;;;;;;;2.17;0.75;;;15.60;99.90;;;;;;5054978;28;20198;-67
2021/05/25 07:30:43;;;;;;;2.50;0.60;;;15.80;99.90;;;;;;5055169;28;20245;-67
2021/05/25 07:33:11;;;;;;;1.87;0.70;;;15.80;99.90;;;;;;5055031;28;20292;-67
2021/05/25 07:35:38;;;;;;;1.07;0.63;;;15.60;99.90;;;;;;5055381;28;20244;-68
2021/05/25 07:38:06;;;;;;;1.53;0.60;;;15.40;99.90;;;;;;5054479;28;20248;-69
2021/05/25 07:40:34;;;;;;;3.13;1.07;;;15.20;99.90;;;;;;5055055;28;20206;-67
2021/05/25 07:43:01;;;;;;;3.00;0.67;;;15.10;99.90;;;;;;5054937;28;20201;-66
2021/05/25 07:45:29;;;;;;;2.50;0.83;;;15.00;99.90;;;;;;5048445;28;20240;-67
2021/05/25 07:47:57;;;;;;;1.30;0.60;;;14.80;99.90;;;;;;5055066;28;20594;-67
2021/05/25 07:50:24;;;;;;;3.40;0.67;;;14.70;99.90;;;;;;5054795;28;20229;-66
2021/05/25 07:52:53;;;;;;;0.67;0.50;;;14.80;99.90;;;;;;5054568;28;20531;-68
2021/05/25 07:55:24;;;;;;;2.37;0.60;;;14.90;99.90;;;;;;5054807;28;20201;-67
2021/05/25 07:57:52;;;;;;;0.67;0.50;;;14.80;99.90;;;;;;5054839;28;20217;-67
2021/05/25 08:00:20;;;;;;;0.83;0.60;;;15.00;99.90;;;;;;5054520;28;20244;-67
2021/05/25 08:02:48;;;;;;;1.47;0.63;;;15.30;99.90;;;;;;5054762;28;20237;-66
2021/05/25 08:05:17;;;;;;;1.47;0.40;;;15.80;99.90;;;;;;5054557;28;20204;-67
2021/05/25 08:07:45;;;;;;;0.63;0.47;;;16.20;99.90;;;;;;5054309;28;20205;-67
2021/05/25 08:10:13;;;;;;;0.57;0.47;;;16.50;99.90;;;;;;5054452;28;20240;-67
2021/05/25 08:12:42;;;;;;;3.55;0.60;;;16.60;99.90;;;;;;5054663;28;20284;-67
2021/05/25 08:15:12;;;;;;;1.02;0.47;;;16.60;99.90;;;;;;5054514;28;20240;-67
2021/05/25 08:17:49;;;;;;;2.78;0.60;;;16.70;99.90;;;;;;5054314;28;20735;-66
2021/05/25 08:20:18;;;;;;;2.38;0.50;;;16.80;99.90;;;;;;5054079;28;20260;-66
2021/05/25 08:23:10;;;;;;;3.50;1.77;;;16.70;99.90;;;;;;5053719;28;20202;-67
2021/05/25 08:25:38;;;;;;;3.80;0.60;;;16.50;99.90;;;;;;5054618;28;20536;-66
2021/05/25 08:28:07;;;;;;;0.50;0.50;;;16.30;99.90;;;;;;5054403;28;20284;-67
2021/05/25 08:30:38;;;;;;;1.90;0.50;;;16.10;99.90;;;;;;5054104;28;20240;-68
2021/05/25 08:33:06;;;;;;;1.10;0.50;;;15.70;99.90;;;;;;5054254;28;20677;-67
2021/05/25 08:35:38;;;;;;;0.60;0.60;;;15.50;99.90;;;;;;5054419;28;20220;-67
2021/05/25 08:38:13;;;;;;;0.90;0.80;;;15.30;99.90;;;;;;5053875;28;20205;-67
2021/05/25 08:40:41;;;;;;;0.60;0.60;;;15.10;99.90;;;;;;5054200;28;20251;-67
2021/05/25 08:43:09;;;;;;;2.10;0.70;;;15.00;99.90;;;;;;5053994;28;20244;-66
2021/05/25 08:45:37;;;;;;;0.70;0.67;;;14.90;99.90;;;;;;5053930;28;20205;-67
2021/05/25 08:48:06;;;;;;;2.20;0.80;;;14.70;99.90;;;;;;5054027;28;20202;-67
2021/05/25 08:50:53;;;;;;;1.43;0.60;;;14.70;99.90;;;;;;5051228;28;20233;-68
2021/05/25 08:53:21;;;;;;;1.23;0.70;;;14.90;99.90;;;;;;5053850;28;20209;-66
2021/05/25 08:55:50;;;;;;;0.60;0.60;;;15.00;99.90;;;;;;5053545;28;20320;-67
2021/05/25 08:58:19;;;;;;;1.40;0.80;;;14.80;99.90;;;;;;5053900;28;20289;-67
2021/05/25 09:00:48;;;;;;;1.00;0.90;;;14.90;99.90;;;;;;5053766;28;20247;-67
2021/05/25 09:03:16;;;;;;;1.00;0.60;;;14.90;99.90;;;;;;5053744;28;20300;-66
2021/05/25 09:05:51;;;;;;;0.90;0.60;;;14.90;99.90;;;;;;5053795;28;20212;-67
2021/05/25 09:08:18;;;;;;;1.00;0.80;;;14.90;99.90;;;;;;5053640;28;20277;-68
2021/05/25 09:10:47;;;;;;;1.03;0.60;;;15.00;99.90;;;;;;5053660;28;20228;-67
2021/05/25 09:13:16;;;;;;;2.93;0.77;;;15.00;99.90;;;;;;5053471;28;20237;-68
2021/05/25 09:15:46;;;;;;;0.63;0.60;;;15.00;99.90;;;;;;5053271;28;20201;-67
2021/05/25 09:18:15;;;;;;;2.33;0.67;;;15.00;99.90;;;;;;5053422;28;20231;-68
2021/05/25 09:20:48;;;;;;;0.70;0.50;;;15.00;99.90;;;;;;5053102;28;20229;-68
2021/05/25 09:23:17;;;;;;;1.47;0.60;;;15.20;99.90;;;;;;5052946;28;20293;-68
2021/05/25 09:25:55;;;;;;;1.13;0.57;;;15.50;99.90;;;;;;5052998;28;20205;-67
2021/05/25 09:28:22;;;;;;;1.47;0.40;;;15.70;99.90;;;;;;5052942;28;20713;-68
2021/05/25 09:30:51;;;;;;;1.10;0.45;;;16.10;99.90;;;;;;5052734;28;20295;-67
2021/05/25 09:33:26;;;;;;;2.33;0.50;;;16.30;99.90;;;;;;5052983;28;20181;-67
2021/05/25 09:35:54;;;;;;;0.32;0.32;;;16.20;99.90;;;;;;5052951;28;20202;-67
2021/05/25 09:38:25;;;;;;;0.75;0.40;;;16.00;99.90;;;;;;5052434;28;20197;-69
2021/05/25 09:40:58;;;;;;;0.98;0.60;;;16.00;99.90;;;;;;5052402;28;20185;-68
2021/05/25 09:43:28;;;;;;;0.73;0.43;;;16.00;99.90;;;;;;5052647;28;20236;-69
2021/05/25 09:46:02;;;;;;;0.80;0.50;;;16.10;99.90;;;;;;5037007;28;20234;-69
2021/05/25 09:48:31;;;;;;;0.60;0.50;;;16.20;99.90;;;;;;5033000;28;20289;-68
2021/05/25 09:50:58;;;;;;;1.03;0.40;;;16.30;99.90;;;;;;5038829;28;20229;-68
2021/05/25 09:53:29;;;;;;;0.77;0.40;;;16.50;99.90;;;;;;5052721;28;20292;-67
2021/05/25 09:55:58;;;;;;;1.02;0.40;;;16.60;99.90;;;;;;5052946;28;20213;-69
2021/05/25 09:58:36;;;;;;;1.07;0.60;;;16.80;99.90;;;;;;5052544;28;20690;-67
2021/05/25 10:01:06;;;;;;;0.73;0.55;;;17.00;99.90;;;;;;5052355;28;20616;-68
2021/05/25 10:03:42;;;;;;;0.70;0.60;;;17.00;99.90;;;;;;5052688;28;20272;-68
2021/05/25 10:06:10;;;;;;;2.47;0.40;;;16.80;99.90;;;;;;5052548;28;20189;-67
2021/05/25 10:08:38;;;;;;;2.43;0.53;;;16.60;99.90;;;;;;5051698;28;20620;-68
2021/05/25 10:11:07;;;;;;;1.48;0.40;;;16.80;99.90;;;;;;5052626;28;20287;-68
2021/05/25 10:13:35;;;;;;;2.33;0.40;;;17.00;99.90;;;;;;5052367;28;20203;-67
2021/05/25 10:16:06;;;;;;;1.50;0.40;;;16.90;99.90;;;;;;5052008;28;20255;-68
2021/05/25 10:18:38;;;;;;;1.00;0.50;;;16.70;99.90;;;;;;5052362;28;20205;-68
2021/05/25 10:21:08;;;;;;;1.45;0.60;;;16.60;99.90;;;;;;5051931;28;20186;-68
2021/05/25 10:23:36;;;;;;;0.63;0.30;;;16.30;99.90;;;;;;5052512;28;20205;-68
2021/05/25 10:26:08;;;;;;;0.90;0.50;;;16.10;99.90;;;;;;5052077;28;20208;-68
2021/05/25 10:28:39;;;;;;;0.40;0.30;;;16.10;99.90;;;;;;5052210;28;20584;-68
2021/05/25 10:31:25;;;;;;;1.97;0.40;;;16.20;99.90;;;;;;5051966;28;20618;-68
2021/05/25 10:34:15;;;;;;;0.50;0.40;;;16.20;99.90;;;;;;5052046;28;20186;-68
2021/05/25 10:36:44;;;;;;;0.47;0.40;;;16.10;99.90;;;;;;5051855;28;20272;-67
2021/05/25 10:39:35;;;;;;;0.93;0.40;;;15.80;99.90;;;;;;5051905;28;20275;-68
2021/05/25 10:42:25;;;;;;;1.00;0.73;;;15.70;99.90;;;;;;5052094;28;20221;-68
2021/05/25 10:44:54;;;;;;;1.70;0.50;;;15.60;99.90;;;;;;5051600;28;20284;-68
2021/05/25 10:47:27;;;;;;;0.53;0.40;;;15.50;99.90;;;;;;5052111;28;20229;-68
2021/05/25 10:49:56;;;;;;;1.60;0.50;;;15.50;99.90;;;;;;5052220;28;20272;-68
2021/05/25 10:52:24;;;;;;;1.50;0.50;;;15.40;99.90;;;;;;5051636;28;20712;-68
2021/05/25 10:54:57;;;;;;;0.50;0.50;;;15.60;99.90;;;;;;5051889;28;20233;-67
2021/05/25 10:57:37;;;;;;;0.80;0.40;;;15.70;99.90;;;;;;5052006;28;20281;-68
2021/05/25 11:00:09;;;;;;;1.73;0.40;;;15.60;99.90;;;;;;5051797;28;20260;-68
2021/05/25 11:02:49;;;;;;;1.43;0.50;;;15.50;99.90;;;;;;5052063;28;20193;-68
2021/05/25 11:05:39;;;;;;;1.17;0.40;;;15.40;99.90;;;;;;5052142;28;20268;-68
2021/05/25 11:08:29;;;;;;;0.63;0.47;;;15.40;99.90;;;;;;5051442;28;20593;-63
2021/05/25 11:11:28;;;;;;;0.47;0.37;;;15.60;99.90;;;;;;5051635;28;20661;-67
2021/05/25 11:13:56;;;;;;;1.07;0.50;;;15.60;99.90;;;;;;5051455;28;20201;-67
2021/05/25 11:16:29;;;;;;;2.00;0.40;;;15.80;99.90;;;;;;5051589;28;20227;-67
2021/05/25 11:19:23;;;;;;;0.33;0.33;;;15.80;99.90;;;;;;5048867;28;20217;-67
2021/05/25 11:24:43;;;;;;;0.50;0.30;;;16.10;99.90;;;;;;5055596;28;20213;-67
2021/05/25 11:27:12;;;;;;;0.50;0.40;;;16.30;99.90;;;;;;5055416;28;20631;-66
2021/05/25 11:29:51;;;;;;;2.95;0.52;;;16.20;99.90;;;;;;5055494;28;20295;-66
2021/05/25 11:32:20;;;;;;;0.30;0.30;;;16.10;99.90;;;;;;5055783;28;20268;-66
2021/05/25 11:34:56;;;;;;;0.52;0.50;;;16.10;99.90;;;;;;5055381;28;20271;-66
2021/05/25 11:37:25;;;;;;;0.40;0.40;;;16.40;99.90;;;;;;5055431;28;20272;-67
2021/05/25 11:39:54;;;;;;;0.63;0.40;;;16.60;99.90;;;;;;5047030;28;20234;-66
2021/05/25 11:42:26;;;;;;;0.63;0.40;;;16.60;99.90;;;;;;5035455;28;20269;-67
2021/05/25 11:44:54;;;;;;;1.23;0.60;;;16.50;99.90;;;;;;5041971;28;20211;-67
2021/05/25 11:47:23;;;;;;;5.80;0.95;;;16.10;99.90;;;;;;5055371;28;20264;-65
2021/05/25 11:49:51;;;;;;;1.00;0.80;;;15.40;99.90;;;;;;5055145;28;20245;-66
2021/05/25 11:52:25;;;;;;;1.23;0.70;;;14.90;99.90;;;;;;5054858;28;20229;-65
2021/05/25 11:54:54;;;;;;;1.87;0.53;;;14.70;99.90;;;;;;5055050;28;20525;-65
2021/05/25 11:57:40;;;;;;;0.77;0.50;;;14.40;99.90;;;;;;5055375;28;20229;-66
2021/05/25 12:00:10;;;;;;;1.70;0.40;;;14.40;99.90;;;;;;5055091;28;20269;-65
2021/05/25 12:02:39;;;;;;;0.43;0.40;;;14.50;99.90;;;;;;5054963;28;20677;-66
2021/05/25 12:05:10;;;;;;;0.50;0.50;;;14.40;99.90;;;;;;5055122;28;20202;-65
2021/05/25 12:07:40;;;;;;;0.83;0.30;;;14.30;99.90;;;;;;5054626;28;20712;-66
2021/05/25 12:10:10;;;;;;;0.50;0.23;;;14.00;99.90;;;;;;5054965;28;20276;-66
2021/05/25 12:12:42;;;;;;;0.87;0.50;;;13.90;99.90;;;;;;5053303;28;20280;-66
2021/05/25 12:15:16;;;;;;;1.07;0.57;;;13.90;99.90;;;;;;5054768;28;20273;-66
2021/05/25 12:17:46;;;;;;;2.83;0.70;;;14.10;99.90;;;;;;5054887;28;20296;-72
2021/05/25 12:20:18;;;;;;;0.87;0.57;;;14.60;99.90;;;;;;5054552;28;20227;-76
2021/05/25 12:22:49;;;;;;;1.60;0.60;;;15.10;99.90;;;;;;5054428;28;20190;-63
2021/05/25 12:25:24;;;;;;;0.47;0.40;;;15.50;99.90;;;;;;5054329;28;20752;-64
2021/05/25 12:27:53;;;;;;;2.53;0.43;;;16.00;99.90;;;;;;5054616;28;20187;-64
2021/05/25 12:30:22;;;;;;;1.40;0.50;;;16.20;99.90;;;;;;5053550;28;20580;-70
2021/05/25 12:32:50;;;;;;;1.40;0.40;;;16.10;99.90;;;;;;5053942;28;20252;-70
2021/05/25 12:35:21;;;;;;;0.63;0.50;;;15.90;99.90;;;;;;5054274;28;20307;-70
2021/05/25 12:38:07;;;;;;;1.23;0.50;;;15.50;99.90;;;;;;5054218;28;20209;-70
2021/05/25 12:40:35;;;;;;;2.50;0.50;;;14.70;99.90;;;;;;5053880;28;20288;-69
2021/05/25 12:43:17;;;;;;;2.10;0.70;;;13.90;99.90;;;;;;5053918;28;20304;-68
2021/05/25 12:45:46;;;;;;;1.40;0.30;;;12.90;99.90;;;;;;5053762;28;20599;-69
2021/05/25 12:48:14;;;;;;;0.60;0.30;;;12.20;99.90;;;;;;5053977;28;20291;-69
2021/05/25 12:50:44;;;;;;;0.40;0.30;;;11.70;99.90;;;;;;5053633;28;20316;-69
2021/05/25 12:53:14;;;;;;;0.50;0.40;;;11.60;99.90;;;;;;5053745;28;20728;-67
2021/05/25 12:55:58;;;;;;;0.97;0.40;;;11.70;99.90;;;;;;5053744;28;20280;-67
2021/05/25 12:58:40;;;;;;;1.17;0.50;;;12.00;99.90;;;;;;5053669;28;20272;-69
2021/05/25 13:01:28;;;;;;;0.30;0.30;;;12.60;99.90;;;;;;5053515;28;20261;-70
2021/05/25 13:04:17;;;;;;;1.50;0.43;;;13.10;99.90;;;;;;5053870;28;20256;-69
2021/05/25 13:06:48;;;;;;;0.70;0.47;;;13.50;99.90;;;;;;5053484;28;20198;-69